Portada
METAR-TAF:

METAR-TAF

Aeropuertos :

Aeropuerto Internacional de Jacksons

Port Moresby, Papúa Nueva Guinea

latitud: 09-26S, longitud: 147-13E, altitud: 38 m

Observación

El informe se hizo hace 1 hora y 28 minutos, a las 02:00 UTC
Viento 5 kt del norte-noroeste
Temperatura 26°C
Humedad 89%
Presión 1010 hPa
Visibilidad 10 km o más
Nubes dispersas a una altura de 1500 ft
Cielo nuboso a una altura de 2500 ft
Cielo nuboso a una altura de 5000 ft

METAR: AYPY 220200Z 34005KT 9999 SCT015 BKN025 BKN050 26/24 Q1010 RMK/BUILD UPS ASSW RASH IN AREA

Hora: 13:28 (03:28 UTC)

Pronóstico

El informe se hizo hace 5 horas y 43 minutos, a las 21:45 UTC
Pronóstico válido del 22 a las 00 UTC al 22 a las 24 UTC
Viento 8 kt del sur-sureste
Visibilidad 10 km o más
Nubes dispersas a una altura de 2000 ft

TAF: AYPY 212145Z 2200/2224 15008KT 9999 SCT020

Observaciones y pronósticos meteorológicos de más de 4000 aeropuertos (mensajes METAR y TAF).

Los puntos amarillos y rojos representan las estaciones disponibles.

Ponga el ratón en el punto deseado para ver el nombre de la estación.

Haga clic para ver las observaciones y los pronósticos meteorológicos.

Para cambiar el mapa : haga clic en los botones verdes con una cruz de color negro para hacer un zoom, en el botón verde con un guión para alejar o en las flechas verdes para mapas adyacentes.


METAR-TAF: